Main page
METAR-TAF:

METAR-TAF

Airports :

Yangon International Airport

Yangon, Myanmar

latitude: 16-46N, longitude: 096-10E, elevation: 14 m

Current weather observation

The report was made 16 minutes ago, at 19:00 UTC
Wind 2 kt from the North
Temperature 19°C
Humidity 83%
Pressure 1014 hPa
Visibility: 6000 m

METAR: VYYY 091900Z 01002KT 6000 NSC 19/16 Q1014 NOSIG

Time: 01:46 (19:16 UTC)

Forecast

The report was made 2 hours and 16 minutes ago, at 17:00 UTC
Forecast valid from 09 at 18 UTC to 10 at 18 UTC
Wind 6 kt from the North/Northwest
Visibility: 8000 m
Becoming
from 09 at 23 UTC to 10 at 01 UTC
Wind 4 kt from the North/Northeast
Visibility: 3000 m
mist
Temporary
from 10 at 10 UTC to 10 at 16 UTC
Visibility: 6000 m
haze

TAF: VYYY 091700Z 0918/1018 34006KT 8000 NSC BECMG 0923/1001 02004KT 3000 BR TEMPO 1010/1016 6000 HZ

Weather observations and forecasts of more than 4000 airports (METAR and TAF reports).

The available stations are represented by yellow and red dots on the map.

Hover mouse over dot to see the name of the station.

Then click to see weather observations and forecasts.

To change the map : click on the green buttons with a black cross to zoom in, on the green button with a dash to zoom out, or on the green arrows for adjacent maps.


METAR-TAF: